sensor_id;sensor_type;location;lat;lon;timestamp;P1;durP1;ratioP1;P2;durP2;ratioP2
74344;SDS011;62776;50.518;6.732;2023-05-19T00:02:11;5.45;;;2.33;;
74344;SDS011;62776;50.518;6.732;2023-05-19T00:05:00;4.65;;;2.80;;
74344;SDS011;62776;50.518;6.732;2023-05-19T00:07:47;5.00;;;2.63;;
74344;SDS011;62776;50.518;6.732;2023-05-19T00:10:38;3.47;;;2.75;;
74344;SDS011;62776;50.518;6.732;2023-05-19T00:13:30;6.25;;;2.70;;
74344;SDS011;62776;50.518;6.732;2023-05-19T00:16:17;2.58;;;2.00;;
74344;SDS011;62776;50.518;6.732;2023-05-19T00:19:05;4.63;;;2.10;;
74344;SDS011;62776;50.518;6.732;2023-05-19T00:21:54;6.35;;;3.05;;
74344;SDS011;62776;50.518;6.732;2023-05-19T00:24:40;4.13;;;2.47;;
74344;SDS011;62776;50.518;6.732;2023-05-19T00:27:27;4.53;;;2.42;;
74344;SDS011;62776;50.518;6.732;2023-05-19T00:30:25;2.95;;;2.28;;
74344;SDS011;62776;50.518;6.732;2023-05-19T00:33:20;3.45;;;2.72;;
74344;SDS011;62776;50.518;6.732;2023-05-19T00:36:09;4.57;;;2.25;;
74344;SDS011;62776;50.518;6.732;2023-05-19T00:38:57;6.18;;;2.75;;
74344;SDS011;62776;50.518;6.732;2023-05-19T00:41:43;4.28;;;3.22;;
74344;SDS011;62776;50.518;6.732;2023-05-19T00:44:30;5.25;;;3.10;;
74344;SDS011;62776;50.518;6.732;2023-05-19T00:47:22;3.70;;;2.63;;
74344;SDS011;62776;50.518;6.732;2023-05-19T00:50:10;3.95;;;2.28;;
74344;SDS011;62776;50.518;6.732;2023-05-19T00:53:06;4.03;;;2.50;;
74344;SDS011;62776;50.518;6.732;2023-05-19T00:55:55;3.95;;;2.22;;
74344;SDS011;62776;50.518;6.732;2023-05-19T00:58:44;6.28;;;2.60;;
74344;SDS011;62776;50.518;6.732;2023-05-19T01:01:31;3.42;;;2.63;;
74344;SDS011;62776;50.518;6.732;2023-05-19T01:04:19;4.43;;;3.15;;
74344;SDS011;62776;50.518;6.732;2023-05-19T01:07:06;5.13;;;2.58;;
74344;SDS011;62776;50.518;6.732;2023-05-19T01:09:53;5.43;;;2.72;;
74344;SDS011;62776;50.518;6.732;2023-05-19T01:12:47;3.40;;;2.78;;
74344;SDS011;62776;50.518;6.732;2023-05-19T01:15:37;3.67;;;2.80;;
74344;SDS011;62776;50.518;6.732;2023-05-19T01:18:56;4.95;;;2.75;;
74344;SDS011;62776;50.518;6.732;2023-05-19T01:22:11;3.80;;;2.90;;
74344;SDS011;62776;50.518;6.732;2023-05-19T01:25:43;4.32;;;3.05;;
74344;SDS011;62776;50.518;6.732;2023-05-19T01:32:04;5.13;;;2.85;;
74344;SDS011;62776;50.518;6.732;2023-05-19T01:34:58;6.10;;;3.28;;
74344;SDS011;62776;50.518;6.732;2023-05-19T01:37:54;5.18;;;2.92;;
74344;SDS011;62776;50.518;6.732;2023-05-19T01:40:42;6.90;;;3.30;;
74344;SDS011;62776;50.518;6.732;2023-05-19T01:43:40;3.95;;;2.67;;
74344;SDS011;62776;50.518;6.732;2023-05-19T01:46:33;5.65;;;3.35;;
74344;SDS011;62776;50.518;6.732;2023-05-19T01:49:27;4.68;;;3.38;;
74344;SDS011;62776;50.518;6.732;2023-05-19T01:52:28;3.45;;;2.75;;
74344;SDS011;62776;50.518;6.732;2023-05-19T01:55:16;3.83;;;2.60;;
74344;SDS011;62776;50.518;6.732;2023-05-19T02:07:23;5.13;;;3.35;;
74344;SDS011;62776;50.518;6.732;2023-05-19T02:10:39;6.35;;;3.70;;
74344;SDS011;62776;50.518;6.732;2023-05-19T02:13:36;3.90;;;3.15;;
74344;SDS011;62776;50.518;6.732;2023-05-19T02:16:33;5.22;;;3.42;;
74344;SDS011;62776;50.518;6.732;2023-05-19T02:19:27;5.35;;;3.53;;
74344;SDS011;62776;50.518;6.732;2023-05-19T02:22:16;3.78;;;2.95;;
74344;SDS011;62776;50.518;6.732;2023-05-19T02:25:03;4.10;;;3.10;;
74344;SDS011;62776;50.518;6.732;2023-05-19T02:27:51;4.45;;;3.38;;
74344;SDS011;62776;50.518;6.732;2023-05-19T02:30:39;4.70;;;3.30;;
74344;SDS011;62776;50.518;6.732;2023-05-19T02:33:26;4.15;;;3.10;;
74344;SDS011;62776;50.518;6.732;2023-05-19T02:36:14;5.82;;;3.65;;
74344;SDS011;62776;50.518;6.732;2023-05-19T02:39:00;4.97;;;3.40;;
74344;SDS011;62776;50.518;6.732;2023-05-19T02:41:47;5.97;;;3.70;;
74344;SDS011;62776;50.518;6.732;2023-05-19T02:44:35;3.92;;;2.97;;
74344;SDS011;62776;50.518;6.732;2023-05-19T02:47:22;4.53;;;2.90;;
74344;SDS011;62776;50.518;6.732;2023-05-19T02:50:08;5.22;;;3.15;;
74344;SDS011;62776;50.518;6.732;2023-05-19T02:52:57;3.30;;;3.00;;
74344;SDS011;62776;50.518;6.732;2023-05-19T02:55:45;6.75;;;3.50;;
74344;SDS011;62776;50.518;6.732;2023-05-19T02:58:32;3.53;;;3.17;;
74344;SDS011;62776;50.518;6.732;2023-05-19T03:01:21;4.70;;;2.97;;
74344;SDS011;62776;50.518;6.732;2023-05-19T03:04:14;7.07;;;3.45;;
74344;SDS011;62776;50.518;6.732;2023-05-19T03:07:02;4.55;;;3.10;;
74344;SDS011;62776;50.518;6.732;2023-05-19T03:09:50;4.47;;;3.30;;
74344;SDS011;62776;50.518;6.732;2023-05-19T03:12:37;4.35;;;2.95;;
74344;SDS011;62776;50.518;6.732;2023-05-19T03:15:30;4.22;;;3.20;;
74344;SDS011;62776;50.518;6.732;2023-05-19T03:18:19;4.55;;;3.70;;
74344;SDS011;62776;50.518;6.732;2023-05-19T03:21:12;5.22;;;4.05;;
74344;SDS011;62776;50.518;6.732;2023-05-19T03:24:00;4.78;;;3.60;;
74344;SDS011;62776;50.518;6.732;2023-05-19T03:26:47;5.57;;;3.88;;
74344;SDS011;62776;50.518;6.732;2023-05-19T03:29:34;3.58;;;3.20;;
74344;SDS011;62776;50.518;6.732;2023-05-19T03:32:28;4.75;;;2.78;;
74344;SDS011;62776;50.518;6.732;2023-05-19T03:35:22;5.20;;;3.45;;
74344;SDS011;62776;50.518;6.732;2023-05-19T03:38:09;3.92;;;3.25;;
74344;SDS011;62776;50.518;6.732;2023-05-19T03:40:56;5.28;;;3.88;;
74344;SDS011;62776;50.518;6.732;2023-05-19T03:43:43;6.13;;;3.92;;
74344;SDS011;62776;50.518;6.732;2023-05-19T03:46:29;5.55;;;4.60;;
74344;SDS011;62776;50.518;6.732;2023-05-19T03:49:16;6.05;;;4.40;;
74344;SDS011;62776;50.518;6.732;2023-05-19T03:52:03;9.57;;;5.07;;
74344;SDS011;62776;50.518;6.732;2023-05-19T03:54:52;6.88;;;4.60;;
74344;SDS011;62776;50.518;6.732;2023-05-19T03:57:44;5.32;;;3.78;;
74344;SDS011;62776;50.518;6.732;2023-05-19T04:00:33;6.13;;;4.50;;
74344;SDS011;62776;50.518;6.732;2023-05-19T04:03:20;5.28;;;4.43;;
74344;SDS011;62776;50.518;6.732;2023-05-19T04:06:07;6.90;;;5.30;;
74344;SDS011;62776;50.518;6.732;2023-05-19T04:08:53;4.80;;;4.25;;
74344;SDS011;62776;50.518;6.732;2023-05-19T04:11:43;5.93;;;4.60;;
74344;SDS011;62776;50.518;6.732;2023-05-19T04:14:40;6.13;;;5.47;;
74344;SDS011;62776;50.518;6.732;2023-05-19T04:17:32;9.70;;;5.15;;
74344;SDS011;62776;50.518;6.732;2023-05-19T04:20:18;6.22;;;4.60;;
74344;SDS011;62776;50.518;6.732;2023-05-19T04:23:04;3.78;;;3.40;;
74344;SDS011;62776;50.518;6.732;2023-05-19T04:25:50;7.20;;;5.00;;
74344;SDS011;62776;50.518;6.732;2023-05-19T04:28:39;5.75;;;4.40;;
74344;SDS011;62776;50.518;6.732;2023-05-19T04:31:35;5.28;;;4.22;;
74344;SDS011;62776;50.518;6.732;2023-05-19T04:34:21;6.22;;;4.32;;
74344;SDS011;62776;50.518;6.732;2023-05-19T04:37:08;5.00;;;4.50;;
74344;SDS011;62776;50.518;6.732;2023-05-19T04:40:01;7.57;;;5.50;;
74344;SDS011;62776;50.518;6.732;2023-05-19T04:42:49;6.53;;;4.55;;
74344;SDS011;62776;50.518;6.732;2023-05-19T04:45:36;4.55;;;4.15;;
74344;SDS011;62776;50.518;6.732;2023-05-19T04:48:26;3.88;;;3.28;;
74344;SDS011;62776;50.518;6.732;2023-05-19T04:51:16;5.25;;;4.20;;
74344;SDS011;62776;50.518;6.732;2023-05-19T04:54:04;5.60;;;4.47;;
74344;SDS011;62776;50.518;6.732;2023-05-19T04:56:50;4.95;;;4.38;;
74344;SDS011;62776;50.518;6.732;2023-05-19T04:59:43;6.00;;;4.57;;
74344;SDS011;62776;50.518;6.732;2023-05-19T05:02:46;7.88;;;4.28;;
74344;SDS011;62776;50.518;6.732;2023-05-19T05:05:39;6.30;;;4.25;;
74344;SDS011;62776;50.518;6.732;2023-05-19T05:08:34;6.68;;;4.45;;
74344;SDS011;62776;50.518;6.732;2023-05-19T05:11:30;5.47;;;3.90;;
74344;SDS011;62776;50.518;6.732;2023-05-19T05:14:16;6.90;;;4.35;;
74344;SDS011;62776;50.518;6.732;2023-05-19T05:17:04;6.43;;;4.35;;
74344;SDS011;62776;50.518;6.732;2023-05-19T05:19:56;4.40;;;3.65;;
74344;SDS011;62776;50.518;6.732;2023-05-19T05:22:43;5.80;;;3.80;;
74344;SDS011;62776;50.518;6.732;2023-05-19T05:25:29;6.28;;;3.53;;
74344;SDS011;62776;50.518;6.732;2023-05-19T05:28:16;5.38;;;3.47;;
74344;SDS011;62776;50.518;6.732;2023-05-19T05:31:04;6.40;;;3.45;;
74344;SDS011;62776;50.518;6.732;2023-05-19T05:33:50;4.45;;;3.38;;
74344;SDS011;62776;50.518;6.732;2023-05-19T05:36:42;4.05;;;2.97;;
74344;SDS011;62776;50.518;6.732;2023-05-19T05:39:28;3.25;;;2.75;;
74344;SDS011;62776;50.518;6.732;2023-05-19T05:48:06;3.50;;;2.40;;
74344;SDS011;62776;50.518;6.732;2023-05-19T05:50:59;4.55;;;2.90;;
74344;SDS011;62776;50.518;6.732;2023-05-19T05:54:01;6.90;;;2.95;;
74344;SDS011;62776;50.518;6.732;2023-05-19T05:56:53;4.25;;;2.58;;
74344;SDS011;62776;50.518;6.732;2023-05-19T05:59:45;3.63;;;2.58;;
74344;SDS011;62776;50.518;6.732;2023-05-19T06:02:34;7.25;;;2.70;;
74344;SDS011;62776;50.518;6.732;2023-05-19T06:05:20;4.35;;;3.00;;
74344;SDS011;62776;50.518;6.732;2023-05-19T06:08:09;5.18;;;3.20;;
74344;SDS011;62776;50.518;6.732;2023-05-19T06:10:55;5.15;;;2.20;;
74344;SDS011;62776;50.518;6.732;2023-05-19T06:13:43;3.28;;;2.13;;
74344;SDS011;62776;50.518;6.732;2023-05-19T06:16:29;5.10;;;3.00;;
74344;SDS011;62776;50.518;6.732;2023-05-19T06:19:17;4.97;;;2.90;;
74344;SDS011;62776;50.518;6.732;2023-05-19T06:22:16;4.28;;;2.25;;
74344;SDS011;62776;50.518;6.732;2023-05-19T06:25:03;4.35;;;2.30;;
74344;SDS011;62776;50.518;6.732;2023-05-19T06:27:58;3.53;;;2.08;;
74344;SDS011;62776;50.518;6.732;2023-05-19T06:30:57;5.85;;;2.72;;
74344;SDS011;62776;50.518;6.732;2023-05-19T06:33:49;3.05;;;2.00;;
74344;SDS011;62776;50.518;6.732;2023-05-19T06:36:38;4.53;;;2.83;;
74344;SDS011;62776;50.518;6.732;2023-05-19T06:39:40;4.97;;;2.30;;
74344;SDS011;62776;50.518;6.732;2023-05-19T06:42:27;5.22;;;2.60;;
74344;SDS011;62776;50.518;6.732;2023-05-19T06:45:12;4.57;;;2.10;;
74344;SDS011;62776;50.518;6.732;2023-05-19T06:48:04;4.00;;;1.80;;
74344;SDS011;62776;50.518;6.732;2023-05-19T06:50:51;5.65;;;2.53;;
74344;SDS011;62776;50.518;6.732;2023-05-19T06:53:38;6.00;;;2.88;;
74344;SDS011;62776;50.518;6.732;2023-05-19T06:56:25;3.88;;;2.33;;
74344;SDS011;62776;50.518;6.732;2023-05-19T06:59:12;2.00;;;1.70;;
74344;SDS011;62776;50.518;6.732;2023-05-19T07:02:00;4.90;;;2.60;;
74344;SDS011;62776;50.518;6.732;2023-05-19T07:04:48;4.30;;;2.45;;
74344;SDS011;62776;50.518;6.732;2023-05-19T07:07:36;3.40;;;2.22;;
74344;SDS011;62776;50.518;6.732;2023-05-19T07:10:23;5.13;;;2.45;;
74344;SDS011;62776;50.518;6.732;2023-05-19T07:13:09;4.28;;;2.83;;
74344;SDS011;62776;50.518;6.732;2023-05-19T07:16:01;5.13;;;2.03;;
74344;SDS011;62776;50.518;6.732;2023-05-19T07:18:49;5.25;;;2.30;;
74344;SDS011;62776;50.518;6.732;2023-05-19T07:21:50;3.17;;;1.63;;
74344;SDS011;62776;50.518;6.732;2023-05-19T07:24:37;3.90;;;1.98;;
74344;SDS011;62776;50.518;6.732;2023-05-19T07:27:23;5.13;;;1.83;;
74344;SDS011;62776;50.518;6.732;2023-05-19T07:30:10;4.72;;;2.42;;
74344;SDS011;62776;50.518;6.732;2023-05-19T07:33:04;4.15;;;2.15;;
74344;SDS011;62776;50.518;6.732;2023-05-19T07:35:52;3.83;;;1.98;;
74344;SDS011;62776;50.518;6.732;2023-05-19T07:38:38;4.50;;;2.55;;
74344;SDS011;62776;50.518;6.732;2023-05-19T07:41:27;4.10;;;2.63;;
74344;SDS011;62776;50.518;6.732;2023-05-19T07:44:29;3.40;;;2.15;;
74344;SDS011;62776;50.518;6.732;2023-05-19T07:47:18;8.23;;;2.58;;
74344;SDS011;62776;50.518;6.732;2023-05-19T07:50:07;3.42;;;1.75;;
74344;SDS011;62776;50.518;6.732;2023-05-19T07:52:54;4.75;;;1.95;;
74344;SDS011;62776;50.518;6.732;2023-05-19T07:55:41;4.10;;;1.80;;
74344;SDS011;62776;50.518;6.732;2023-05-19T07:58:34;2.72;;;1.45;;
74344;SDS011;62776;50.518;6.732;2023-05-19T08:01:26;4.25;;;2.15;;
74344;SDS011;62776;50.518;6.732;2023-05-19T08:04:15;2.90;;;1.75;;
74344;SDS011;62776;50.518;6.732;2023-05-19T08:07:02;3.33;;;1.80;;
74344;SDS011;62776;50.518;6.732;2023-05-19T08:09:49;3.78;;;1.65;;
74344;SDS011;62776;50.518;6.732;2023-05-19T08:12:41;4.43;;;1.50;;
74344;SDS011;62776;50.518;6.732;2023-05-19T08:15:28;2.97;;;1.55;;
74344;SDS011;62776;50.518;6.732;2023-05-19T08:18:16;2.63;;;1.73;;
74344;SDS011;62776;50.518;6.732;2023-05-19T08:21:21;4.75;;;1.67;;
74344;SDS011;62776;50.518;6.732;2023-05-19T08:24:20;5.28;;;2.03;;
74344;SDS011;62776;50.518;6.732;2023-05-19T08:27:12;8.57;;;2.93;;
74344;SDS011;62776;50.518;6.732;2023-05-19T08:29:59;2.53;;;1.48;;
74344;SDS011;62776;50.518;6.732;2023-05-19T08:32:52;4.80;;;1.85;;
74344;SDS011;62776;50.518;6.732;2023-05-19T08:35:50;5.80;;;1.75;;
74344;SDS011;62776;50.518;6.732;2023-05-19T08:38:39;2.05;;;1.30;;
74344;SDS011;62776;50.518;6.732;2023-05-19T08:41:26;3.05;;;1.55;;
74344;SDS011;62776;50.518;6.732;2023-05-19T08:44:14;2.60;;;1.63;;
74344;SDS011;62776;50.518;6.732;2023-05-19T08:47:02;3.72;;;1.80;;
74344;SDS011;62776;50.518;6.732;2023-05-19T08:49:50;4.78;;;1.63;;
74344;SDS011;62776;50.518;6.732;2023-05-19T08:55:45;3.35;;;1.90;;
74344;SDS011;62776;50.518;6.732;2023-05-19T08:58:50;3.15;;;1.70;;
74344;SDS011;62776;50.518;6.732;2023-05-19T09:01:37;2.75;;;1.50;;
74344;SDS011;62776;50.518;6.732;2023-05-19T09:04:26;2.55;;;1.67;;
74344;SDS011;62776;50.518;6.732;2023-05-19T09:07:14;3.95;;;1.55;;
74344;SDS011;62776;50.518;6.732;2023-05-19T09:10:02;2.00;;;1.38;;
74344;SDS011;62776;50.518;6.732;2023-05-19T09:12:52;5.07;;;1.65;;
74344;SDS011;62776;50.518;6.732;2023-05-19T09:15:39;3.95;;;1.73;;
74344;SDS011;62776;50.518;6.732;2023-05-19T09:18:28;2.53;;;1.55;;
74344;SDS011;62776;50.518;6.732;2023-05-19T09:21:27;3.42;;;2.00;;
74344;SDS011;62776;50.518;6.732;2023-05-19T09:24:18;1.85;;;1.48;;
74344;SDS011;62776;50.518;6.732;2023-05-19T09:27:04;3.78;;;1.60;;
74344;SDS011;62776;50.518;6.732;2023-05-19T09:29:51;3.72;;;2.58;;
74344;SDS011;62776;50.518;6.732;2023-05-19T09:32:39;4.07;;;1.50;;
74344;SDS011;62776;50.518;6.732;2023-05-19T09:35:25;2.95;;;1.88;;
74344;SDS011;62776;50.518;6.732;2023-05-19T09:38:16;6.85;;;2.45;;
74344;SDS011;62776;50.518;6.732;2023-05-19T09:41:05;2.15;;;1.77;;
74344;SDS011;62776;50.518;6.732;2023-05-19T09:43:53;2.45;;;1.90;;
74344;SDS011;62776;50.518;6.732;2023-05-19T09:46:47;4.13;;;1.88;;
74344;SDS011;62776;50.518;6.732;2023-05-19T09:49:35;2.60;;;1.52;;
74344;SDS011;62776;50.518;6.732;2023-05-19T09:52:21;4.28;;;2.25;;
74344;SDS011;62776;50.518;6.732;2023-05-19T09:55:08;3.50;;;1.80;;
74344;SDS011;62776;50.518;6.732;2023-05-19T09:57:58;4.00;;;2.55;;
74344;SDS011;62776;50.518;6.732;2023-05-19T10:00:53;3.40;;;1.52;;
74344;SDS011;62776;50.518;6.732;2023-05-19T10:03:48;2.65;;;1.60;;
74344;SDS011;62776;50.518;6.732;2023-05-19T10:06:37;4.15;;;1.77;;
74344;SDS011;62776;50.518;6.732;2023-05-19T10:09:27;4.63;;;1.75;;
74344;SDS011;62776;50.518;6.732;2023-05-19T10:12:14;2.75;;;2.15;;
74344;SDS011;62776;50.518;6.732;2023-05-19T10:15:02;4.07;;;2.05;;
74344;SDS011;62776;50.518;6.732;2023-05-19T10:17:51;4.22;;;2.10;;
74344;SDS011;62776;50.518;6.732;2023-05-19T10:20:39;3.42;;;1.83;;
74344;SDS011;62776;50.518;6.732;2023-05-19T10:23:33;3.03;;;1.80;;
74344;SDS011;62776;50.518;6.732;2023-05-19T10:26:22;4.00;;;1.75;;
74344;SDS011;62776;50.518;6.732;2023-05-19T10:29:25;2.10;;;1.23;;
74344;SDS011;62776;50.518;6.732;2023-05-19T10:32:23;5.47;;;2.42;;
74344;SDS011;62776;50.518;6.732;2023-05-19T10:39:09;3.55;;;1.70;;
74344;SDS011;62776;50.518;6.732;2023-05-19T10:42:12;3.08;;;1.75;;
74344;SDS011;62776;50.518;6.732;2023-05-19T10:45:14;3.35;;;1.60;;
74344;SDS011;62776;50.518;6.732;2023-05-19T10:48:12;4.20;;;1.50;;
74344;SDS011;62776;50.518;6.732;2023-05-19T10:51:06;1.67;;;1.40;;
74344;SDS011;62776;50.518;6.732;2023-05-19T10:53:56;3.28;;;2.17;;
74344;SDS011;62776;50.518;6.732;2023-05-19T10:56:46;2.15;;;1.45;;
74344;SDS011;62776;50.518;6.732;2023-05-19T10:59:34;6.28;;;2.35;;
74344;SDS011;62776;50.518;6.732;2023-05-19T11:02:35;4.07;;;1.55;;
74344;SDS011;62776;50.518;6.732;2023-05-19T11:05:30;3.17;;;2.38;;
74344;SDS011;62776;50.518;6.732;2023-05-19T11:08:33;3.63;;;1.92;;
74344;SDS011;62776;50.518;6.732;2023-05-19T11:11:20;4.00;;;1.98;;
74344;SDS011;62776;50.518;6.732;2023-05-19T11:17:05;5.55;;;2.05;;
74344;SDS011;62776;50.518;6.732;2023-05-19T11:20:03;2.45;;;1.52;;
74344;SDS011;62776;50.518;6.732;2023-05-19T11:23:07;2.35;;;1.60;;
74344;SDS011;62776;50.518;6.732;2023-05-19T11:25:57;5.57;;;1.92;;
74344;SDS011;62776;50.518;6.732;2023-05-19T11:28:46;4.68;;;1.83;;
74344;SDS011;62776;50.518;6.732;2023-05-19T11:31:34;2.40;;;1.45;;
74344;SDS011;62776;50.518;6.732;2023-05-19T11:34:21;2.63;;;1.88;;
74344;SDS011;62776;50.518;6.732;2023-05-19T11:37:17;5.07;;;1.63;;
74344;SDS011;62776;50.518;6.732;2023-05-19T11:40:05;3.45;;;1.60;;
74344;SDS011;62776;50.518;6.732;2023-05-19T11:42:52;3.90;;;2.45;;
74344;SDS011;62776;50.518;6.732;2023-05-19T11:45:38;2.92;;;1.83;;
74344;SDS011;62776;50.518;6.732;2023-05-19T11:48:25;3.55;;;2.03;;
74344;SDS011;62776;50.518;6.732;2023-05-19T11:50:58;3.63;;;1.63;;
74344;SDS011;62776;50.518;6.732;2023-05-19T11:53:47;3.63;;;1.80;;
74344;SDS011;62776;50.518;6.732;2023-05-19T11:56:26;3.92;;;2.10;;
74344;SDS011;62776;50.518;6.732;2023-05-19T11:59:17;4.43;;;2.30;;
74344;SDS011;62776;50.518;6.732;2023-05-19T12:02:17;2.88;;;1.63;;
74344;SDS011;62776;50.518;6.732;2023-05-19T12:04:54;4.40;;;1.70;;
74344;SDS011;62776;50.518;6.732;2023-05-19T12:07:42;4.78;;;1.60;;
74344;SDS011;62776;50.518;6.732;2023-05-19T12:10:29;2.97;;;1.65;;
74344;SDS011;62776;50.518;6.732;2023-05-19T12:13:18;2.58;;;1.50;;
74344;SDS011;62776;50.518;6.732;2023-05-19T12:16:05;2.13;;;1.20;;
74344;SDS011;62776;50.518;6.732;2023-05-19T12:18:53;3.95;;;1.95;;
74344;SDS011;62776;50.518;6.732;2023-05-19T12:21:41;3.13;;;1.88;;
74344;SDS011;62776;50.518;6.732;2023-05-19T12:24:28;3.45;;;1.73;;
74344;SDS011;62776;50.518;6.732;2023-05-19T12:27:18;2.78;;;1.52;;
74344;SDS011;62776;50.518;6.732;2023-05-19T12:30:17;2.50;;;1.55;;
74344;SDS011;62776;50.518;6.732;2023-05-19T12:33:14;4.82;;;1.90;;
74344;SDS011;62776;50.518;6.732;2023-05-19T12:36:08;4.68;;;2.10;;
74344;SDS011;62776;50.518;6.732;2023-05-19T12:38:56;3.15;;;1.77;;
74344;SDS011;62776;50.518;6.732;2023-05-19T12:41:44;2.30;;;1.40;;
74344;SDS011;62776;50.518;6.732;2023-05-19T12:44:31;3.05;;;1.67;;
74344;SDS011;62776;50.518;6.732;2023-05-19T12:50:20;2.88;;;1.60;;
74344;SDS011;62776;50.518;6.732;2023-05-19T12:53:13;4.35;;;1.63;;
74344;SDS011;62776;50.518;6.732;2023-05-19T12:56:00;2.28;;;1.73;;
74344;SDS011;62776;50.518;6.732;2023-05-19T12:58:54;3.13;;;1.90;;
74344;SDS011;62776;50.518;6.732;2023-05-19T13:01:40;2.00;;;1.58;;
74344;SDS011;62776;50.518;6.732;2023-05-19T13:04:27;2.83;;;1.42;;
74344;SDS011;62776;50.518;6.732;2023-05-19T13:07:14;2.85;;;1.75;;
74344;SDS011;62776;50.518;6.732;2023-05-19T13:10:06;3.78;;;1.90;;
74344;SDS011;62776;50.518;6.732;2023-05-19T13:12:59;2.38;;;1.58;;
74344;SDS011;62776;50.518;6.732;2023-05-19T13:15:58;2.03;;;1.77;;
74344;SDS011;62776;50.518;6.732;2023-05-19T13:18:45;5.05;;;1.60;;
74344;SDS011;62776;50.518;6.732;2023-05-19T13:21:31;2.10;;;1.33;;
74344;SDS011;62776;50.518;6.732;2023-05-19T13:24:17;2.70;;;1.70;;
74344;SDS011;62776;50.518;6.732;2023-05-19T13:27:04;3.13;;;1.80;;
74344;SDS011;62776;50.518;6.732;2023-05-19T13:29:50;4.70;;;1.48;;
74344;SDS011;62776;50.518;6.732;2023-05-19T13:32:37;3.58;;;1.10;;
74344;SDS011;62776;50.518;6.732;2023-05-19T13:35:23;1.75;;;1.40;;
74344;SDS011;62776;50.518;6.732;2023-05-19T13:38:12;4.57;;;1.77;;
74344;SDS011;62776;50.518;6.732;2023-05-19T13:40:58;2.97;;;1.73;;
74344;SDS011;62776;50.518;6.732;2023-05-19T13:43:45;3.58;;;1.63;;
74344;SDS011;62776;50.518;6.732;2023-05-19T13:46:34;3.15;;;1.52;;
74344;SDS011;62776;50.518;6.732;2023-05-19T13:49:27;2.00;;;1.38;;
74344;SDS011;62776;50.518;6.732;2023-05-19T13:52:13;3.22;;;1.80;;
74344;SDS011;62776;50.518;6.732;2023-05-19T13:55:00;2.33;;;1.35;;
74344;SDS011;62776;50.518;6.732;2023-05-19T13:57:53;2.53;;;1.40;;
74344;SDS011;62776;50.518;6.732;2023-05-19T14:00:40;3.08;;;1.50;;
74344;SDS011;62776;50.518;6.732;2023-05-19T14:03:34;2.88;;;1.40;;
74344;SDS011;62776;50.518;6.732;2023-05-19T14:06:26;3.47;;;1.60;;
74344;SDS011;62776;50.518;6.732;2023-05-19T14:09:13;2.60;;;1.38;;
74344;SDS011;62776;50.518;6.732;2023-05-19T14:12:06;1.75;;;1.15;;
74344;SDS011;62776;50.518;6.732;2023-05-19T14:14:56;2.95;;;1.52;;
74344;SDS011;62776;50.518;6.732;2023-05-19T14:17:42;1.35;;;1.13;;
74344;SDS011;62776;50.518;6.732;2023-05-19T14:20:29;2.95;;;1.15;;
74344;SDS011;62776;50.518;6.732;2023-05-19T14:23:16;1.58;;;1.25;;
74344;SDS011;62776;50.518;6.732;2023-05-19T14:26:06;2.13;;;1.30;;
74344;SDS011;62776;50.518;6.732;2023-05-19T14:28:52;2.55;;;1.70;;
74344;SDS011;62776;50.518;6.732;2023-05-19T14:34:34;3.33;;;1.50;;
74344;SDS011;62776;50.518;6.732;2023-05-19T14:37:21;2.33;;;1.30;;
74344;SDS011;62776;50.518;6.732;2023-05-19T14:40:10;1.40;;;1.30;;
74344;SDS011;62776;50.518;6.732;2023-05-19T14:43:02;2.33;;;1.40;;
74344;SDS011;62776;50.518;6.732;2023-05-19T14:45:49;3.75;;;1.35;;
74344;SDS011;62776;50.518;6.732;2023-05-19T14:48:35;2.75;;;1.30;;
74344;SDS011;62776;50.518;6.732;2023-05-19T14:51:24;2.15;;;1.33;;
74344;SDS011;62776;50.518;6.732;2023-05-19T14:54:10;4.03;;;1.90;;
74344;SDS011;62776;50.518;6.732;2023-05-19T14:56:57;1.58;;;1.25;;
74344;SDS011;62776;50.518;6.732;2023-05-19T14:59:46;3.80;;;1.33;;
74344;SDS011;62776;50.518;6.732;2023-05-19T15:02:34;2.33;;;1.33;;
74344;SDS011;62776;50.518;6.732;2023-05-19T15:05:27;2.05;;;1.30;;
74344;SDS011;62776;50.518;6.732;2023-05-19T15:08:16;5.32;;;1.60;;
74344;SDS011;62776;50.518;6.732;2023-05-19T15:11:05;3.40;;;1.30;;
74344;SDS011;62776;50.518;6.732;2023-05-19T15:13:59;2.75;;;1.38;;
74344;SDS011;62776;50.518;6.732;2023-05-19T15:16:51;3.47;;;1.48;;
74344;SDS011;62776;50.518;6.732;2023-05-19T15:19:51;1.35;;;0.95;;
74344;SDS011;62776;50.518;6.732;2023-05-19T15:22:37;3.30;;;1.30;;
74344;SDS011;62776;50.518;6.732;2023-05-19T15:25:25;1.65;;;1.40;;
74344;SDS011;62776;50.518;6.732;2023-05-19T15:28:14;1.90;;;1.30;;
74344;SDS011;62776;50.518;6.732;2023-05-19T15:31:03;2.08;;;1.10;;
74344;SDS011;62776;50.518;6.732;2023-05-19T15:33:49;2.53;;;1.23;;
74344;SDS011;62776;50.518;6.732;2023-05-19T15:36:35;3.30;;;1.40;;
74344;SDS011;62776;50.518;6.732;2023-05-19T15:39:23;2.03;;;1.23;;
74344;SDS011;62776;50.518;6.732;2023-05-19T15:42:09;2.22;;;1.25;;
74344;SDS011;62776;50.518;6.732;2023-05-19T15:44:57;3.13;;;1.23;;
74344;SDS011;62776;50.518;6.732;2023-05-19T15:47:45;3.13;;;1.42;;
74344;SDS011;62776;50.518;6.732;2023-05-19T15:50:32;2.47;;;1.50;;
74344;SDS011;62776;50.518;6.732;2023-05-19T15:53:19;1.98;;;1.00;;
74344;SDS011;62776;50.518;6.732;2023-05-19T15:56:12;2.78;;;1.02;;
74344;SDS011;62776;50.518;6.732;2023-05-19T15:58:59;3.80;;;1.30;;
74344;SDS011;62776;50.518;6.732;2023-05-19T16:01:55;1.38;;;1.27;;
74344;SDS011;62776;50.518;6.732;2023-05-19T16:04:41;1.98;;;1.10;;
74344;SDS011;62776;50.518;6.732;2023-05-19T16:07:34;3.15;;;1.40;;
74344;SDS011;62776;50.518;6.732;2023-05-19T16:10:27;2.40;;;1.30;;
74344;SDS011;62776;50.518;6.732;2023-05-19T16:13:16;1.15;;;1.02;;
74344;SDS011;62776;50.518;6.732;2023-05-19T16:16:02;1.70;;;1.30;;
74344;SDS011;62776;50.518;6.732;2023-05-19T16:18:48;1.30;;;1.10;;
74344;SDS011;62776;50.518;6.732;2023-05-19T16:21:35;2.17;;;1.27;;
74344;SDS011;62776;50.518;6.732;2023-05-19T16:24:21;2.38;;;1.30;;
74344;SDS011;62776;50.518;6.732;2023-05-19T16:27:09;3.13;;;1.10;;
74344;SDS011;62776;50.518;6.732;2023-05-19T16:30:02;1.88;;;1.00;;
74344;SDS011;62776;50.518;6.732;2023-05-19T16:32:51;1.60;;;1.10;;
74344;SDS011;62776;50.518;6.732;2023-05-19T16:35:39;2.45;;;1.75;;
74344;SDS011;62776;50.518;6.732;2023-05-19T16:38:25;3.38;;;1.58;;
74344;SDS011;62776;50.518;6.732;2023-05-19T16:41:11;1.73;;;0.95;;
74344;SDS011;62776;50.518;6.732;2023-05-19T16:44:13;2.60;;;1.50;;
74344;SDS011;62776;50.518;6.732;2023-05-19T16:46:59;3.55;;;1.27;;
74344;SDS011;62776;50.518;6.732;2023-05-19T16:49:46;4.43;;;1.40;;
74344;SDS011;62776;50.518;6.732;2023-05-19T16:52:33;1.50;;;1.10;;
74344;SDS011;62776;50.518;6.732;2023-05-19T16:55:21;2.15;;;1.13;;
74344;SDS011;62776;50.518;6.732;2023-05-19T16:58:10;2.67;;;1.10;;
74344;SDS011;62776;50.518;6.732;2023-05-19T17:00:56;1.10;;;0.93;;
74344;SDS011;62776;50.518;6.732;2023-05-19T17:03:44;1.80;;;1.20;;
74344;SDS011;62776;50.518;6.732;2023-05-19T17:06:31;3.03;;;1.10;;
74344;SDS011;62776;50.518;6.732;2023-05-19T17:09:22;3.83;;;1.52;;
74344;SDS011;62776;50.518;6.732;2023-05-19T17:12:10;1.85;;;1.02;;
74344;SDS011;62776;50.518;6.732;2023-05-19T17:15:03;0.77;;;0.73;;
74344;SDS011;62776;50.518;6.732;2023-05-19T17:17:50;2.47;;;1.58;;
74344;SDS011;62776;50.518;6.732;2023-05-19T17:20:36;2.33;;;1.20;;
74344;SDS011;62776;50.518;6.732;2023-05-19T17:23:23;3.33;;;1.30;;
74344;SDS011;62776;50.518;6.732;2023-05-19T17:26:10;4.18;;;1.30;;
74344;SDS011;62776;50.518;6.732;2023-05-19T17:29:03;2.55;;;1.10;;
74344;SDS011;62776;50.518;6.732;2023-05-19T17:31:50;2.92;;;1.48;;
74344;SDS011;62776;50.518;6.732;2023-05-19T17:34:37;1.77;;;1.00;;
74344;SDS011;62776;50.518;6.732;2023-05-19T17:37:24;1.98;;;1.02;;
74344;SDS011;62776;50.518;6.732;2023-05-19T17:40:12;2.92;;;1.05;;